sensor_id;sensor_type;location;lat;lon;timestamp;pressure;altitude;pressure_sealevel;temperature;humidity
113;BME280;45999;48.808;9.182;2023-05-18T00:00:51;98750.69;;;7.86;100.00
113;BME280;45999;48.808;9.182;2023-05-18T00:03:18;98745.38;;;7.86;100.00
113;BME280;45999;48.808;9.182;2023-05-18T00:05:44;98746.31;;;7.93;100.00
113;BME280;45999;48.808;9.182;2023-05-18T00:08:11;98735.63;;;7.87;100.00
113;BME280;45999;48.808;9.182;2023-05-18T00:10:37;98734.53;;;7.81;100.00
113;BME280;45999;48.808;9.182;2023-05-18T00:13:04;98730.78;;;7.76;100.00
113;BME280;45999;48.808;9.182;2023-05-18T00:15:32;98720.50;;;7.66;100.00
113;BME280;45999;48.808;9.182;2023-05-18T00:17:59;98720.56;;;7.73;100.00
113;BME280;45999;48.808;9.182;2023-05-18T00:20:25;98729.31;;;7.88;100.00
113;BME280;45999;48.808;9.182;2023-05-18T00:22:53;98717.97;;;7.94;100.00
113;BME280;45999;48.808;9.182;2023-05-18T00:25:19;98720.09;;;7.98;100.00
113;BME280;45999;48.808;9.182;2023-05-18T00:27:46;98721.38;;;7.88;100.00
113;BME280;45999;48.808;9.182;2023-05-18T00:30:14;98726.94;;;7.93;100.00
113;BME280;45999;48.808;9.182;2023-05-18T00:32:40;98721.22;;;7.75;100.00
113;BME280;45999;48.808;9.182;2023-05-18T00:35:07;98715.00;;;7.68;100.00
113;BME280;45999;48.808;9.182;2023-05-18T00:37:33;98721.72;;;7.64;100.00
113;BME280;45999;48.808;9.182;2023-05-18T00:39:59;98719.69;;;7.51;100.00
113;BME280;45999;48.808;9.182;2023-05-18T00:42:26;98719.06;;;7.49;100.00
113;BME280;45999;48.808;9.182;2023-05-18T00:44:52;98720.34;;;7.39;100.00
113;BME280;45999;48.808;9.182;2023-05-18T00:47:18;98719.59;;;7.45;100.00
113;BME280;45999;48.808;9.182;2023-05-18T00:49:45;98719.72;;;7.37;100.00
113;BME280;45999;48.808;9.182;2023-05-18T00:52:12;98726.16;;;7.34;100.00
113;BME280;45999;48.808;9.182;2023-05-18T00:54:38;98725.81;;;7.37;100.00
113;BME280;45999;48.808;9.182;2023-05-18T00:57:05;98720.97;;;7.41;100.00
113;BME280;45999;48.808;9.182;2023-05-18T00:59:32;98713.13;;;7.47;100.00
113;BME280;45999;48.808;9.182;2023-05-18T01:01:59;98715.75;;;7.47;100.00
113;BME280;45999;48.808;9.182;2023-05-18T01:04:26;98716.94;;;7.45;100.00
113;BME280;45999;48.808;9.182;2023-05-18T01:06:55;98720.50;;;7.52;100.00
113;BME280;45999;48.808;9.182;2023-05-18T01:09:23;98714.88;;;7.40;100.00
113;BME280;45999;48.808;9.182;2023-05-18T01:12:11;98724.16;;;7.36;100.00
113;BME280;45999;48.808;9.182;2023-05-18T01:14:51;98717.06;;;7.37;100.00
113;BME280;45999;48.808;9.182;2023-05-18T01:20:21;98719.13;;;7.27;100.00
113;BME280;45999;48.808;9.182;2023-05-18T01:25:33;98709.03;;;7.30;100.00
113;BME280;45999;48.808;9.182;2023-05-18T01:28:08;98716.22;;;7.22;100.00
113;BME280;45999;48.808;9.182;2023-05-18T01:30:40;98719.53;;;7.24;100.00
113;BME280;45999;48.808;9.182;2023-05-18T01:33:08;98716.22;;;7.22;100.00
113;BME280;45999;48.808;9.182;2023-05-18T01:35:35;98720.88;;;7.20;100.00
113;BME280;45999;48.808;9.182;2023-05-18T01:38:03;98719.94;;;7.13;100.00
113;BME280;45999;48.808;9.182;2023-05-18T01:40:33;98716.69;;;7.11;100.00
113;BME280;45999;48.808;9.182;2023-05-18T01:43:09;98713.19;;;6.96;100.00
113;BME280;45999;48.808;9.182;2023-05-18T01:45:39;98721.09;;;6.96;100.00
113;BME280;45999;48.808;9.182;2023-05-18T01:48:09;98714.19;;;6.95;100.00
113;BME280;45999;48.808;9.182;2023-05-18T01:50:42;98717.91;;;6.86;100.00
113;BME280;45999;48.808;9.182;2023-05-18T01:53:17;98709.97;;;6.86;100.00
113;BME280;45999;48.808;9.182;2023-05-18T01:55:46;98711.81;;;7.00;100.00
113;BME280;45999;48.808;9.182;2023-05-18T01:58:14;98714.91;;;6.89;100.00
113;BME280;45999;48.808;9.182;2023-05-18T02:00:42;98714.69;;;6.76;100.00
113;BME280;45999;48.808;9.182;2023-05-18T02:03:11;98713.31;;;6.65;100.00
113;BME280;45999;48.808;9.182;2023-05-18T02:05:38;98706.84;;;6.68;100.00
113;BME280;45999;48.808;9.182;2023-05-18T02:08:04;98697.72;;;6.70;100.00
113;BME280;45999;48.808;9.182;2023-05-18T02:10:31;98704.47;;;6.73;100.00
113;BME280;45999;48.808;9.182;2023-05-18T02:12:57;98706.28;;;6.58;100.00
113;BME280;45999;48.808;9.182;2023-05-18T02:15:23;98705.34;;;6.51;100.00
113;BME280;45999;48.808;9.182;2023-05-18T02:17:50;98711.56;;;6.58;100.00
113;BME280;45999;48.808;9.182;2023-05-18T02:20:16;98701.22;;;6.71;100.00
113;BME280;45999;48.808;9.182;2023-05-18T02:22:43;98696.81;;;6.63;100.00
113;BME280;45999;48.808;9.182;2023-05-18T02:25:10;98699.19;;;6.58;100.00
113;BME280;45999;48.808;9.182;2023-05-18T02:27:36;98697.78;;;6.48;100.00
113;BME280;45999;48.808;9.182;2023-05-18T02:30:03;98700.06;;;6.51;100.00
113;BME280;45999;48.808;9.182;2023-05-18T02:32:32;98695.97;;;6.48;100.00
113;BME280;45999;48.808;9.182;2023-05-18T02:35:06;98699.06;;;6.52;100.00
113;BME280;45999;48.808;9.182;2023-05-18T02:37:33;98704.22;;;6.45;100.00
113;BME280;45999;48.808;9.182;2023-05-18T02:40:13;98698.06;;;6.53;100.00
113;BME280;45999;48.808;9.182;2023-05-18T02:42:40;98692.16;;;6.51;100.00
113;BME280;45999;48.808;9.182;2023-05-18T02:45:07;98697.94;;;6.46;100.00
113;BME280;45999;48.808;9.182;2023-05-18T02:47:33;98684.78;;;6.61;100.00
113;BME280;45999;48.808;9.182;2023-05-18T02:50:00;98692.72;;;6.38;100.00
113;BME280;45999;48.808;9.182;2023-05-18T02:52:26;98693.59;;;6.31;100.00
113;BME280;45999;48.808;9.182;2023-05-18T02:54:53;98683.72;;;6.33;100.00
113;BME280;45999;48.808;9.182;2023-05-18T02:57:20;98680.47;;;6.45;100.00
113;BME280;45999;48.808;9.182;2023-05-18T02:59:46;98679.06;;;6.35;100.00
113;BME280;45999;48.808;9.182;2023-05-18T03:02:13;98675.44;;;6.13;100.00
113;BME280;45999;48.808;9.182;2023-05-18T03:04:40;98684.75;;;6.24;100.00
113;BME280;45999;48.808;9.182;2023-05-18T03:07:07;98687.03;;;6.27;100.00
113;BME280;45999;48.808;9.182;2023-05-18T03:09:34;98682.41;;;6.29;100.00
113;BME280;45999;48.808;9.182;2023-05-18T03:12:01;98686.69;;;6.30;100.00
113;BME280;45999;48.808;9.182;2023-05-18T03:14:27;98691.63;;;6.33;100.00
113;BME280;45999;48.808;9.182;2023-05-18T03:16:53;98687.78;;;6.13;100.00
113;BME280;45999;48.808;9.182;2023-05-18T03:19:21;98681.63;;;6.20;100.00
113;BME280;45999;48.808;9.182;2023-05-18T03:21:48;98685.97;;;6.36;100.00
113;BME280;45999;48.808;9.182;2023-05-18T03:24:14;98688.03;;;6.26;100.00
113;BME280;45999;48.808;9.182;2023-05-18T03:26:41;98692.31;;;6.27;100.00
113;BME280;45999;48.808;9.182;2023-05-18T03:29:08;98687.56;;;6.22;100.00
113;BME280;45999;48.808;9.182;2023-05-18T03:31:35;98683.38;;;6.28;100.00
113;BME280;45999;48.808;9.182;2023-05-18T03:34:01;98684.94;;;6.22;100.00
113;BME280;45999;48.808;9.182;2023-05-18T03:36:28;98687.13;;;6.19;100.00
113;BME280;45999;48.808;9.182;2023-05-18T03:38:54;98688.09;;;6.18;100.00
113;BME280;45999;48.808;9.182;2023-05-18T03:41:21;98679.19;;;6.19;100.00
113;BME280;45999;48.808;9.182;2023-05-18T03:43:47;98688.22;;;6.02;100.00
113;BME280;45999;48.808;9.182;2023-05-18T03:46:13;98689.56;;;5.98;100.00
113;BME280;45999;48.808;9.182;2023-05-18T03:48:40;98681.97;;;5.95;100.00
113;BME280;45999;48.808;9.182;2023-05-18T03:51:06;98687.97;;;5.89;100.00
113;BME280;45999;48.808;9.182;2023-05-18T03:53:32;98687.25;;;5.95;100.00
113;BME280;45999;48.808;9.182;2023-05-18T03:56:00;98689.69;;;6.04;100.00
113;BME280;45999;48.808;9.182;2023-05-18T03:58:26;98689.09;;;5.94;100.00
113;BME280;45999;48.808;9.182;2023-05-18T04:00:53;98697.47;;;5.98;100.00
113;BME280;45999;48.808;9.182;2023-05-18T04:03:20;98709.50;;;6.00;100.00
113;BME280;45999;48.808;9.182;2023-05-18T04:05:48;98699.81;;;5.93;100.00
113;BME280;45999;48.808;9.182;2023-05-18T04:08:15;98704.50;;;5.83;100.00
113;BME280;45999;48.808;9.182;2023-05-18T04:10:42;98703.97;;;5.87;100.00
113;BME280;45999;48.808;9.182;2023-05-18T04:13:09;98708.78;;;5.84;100.00
113;BME280;45999;48.808;9.182;2023-05-18T04:15:36;98715.06;;;5.83;100.00
113;BME280;45999;48.808;9.182;2023-05-18T04:18:03;98713.50;;;5.88;100.00
113;BME280;45999;48.808;9.182;2023-05-18T04:20:29;98724.50;;;6.00;100.00
113;BME280;45999;48.808;9.182;2023-05-18T04:22:56;98716.53;;;6.08;100.00
113;BME280;45999;48.808;9.182;2023-05-18T04:25:22;98721.44;;;6.19;100.00
113;BME280;45999;48.808;9.182;2023-05-18T04:27:52;98721.06;;;6.22;100.00
113;BME280;45999;48.808;9.182;2023-05-18T04:30:19;98718.38;;;6.30;100.00
113;BME280;45999;48.808;9.182;2023-05-18T04:32:47;98723.72;;;6.44;100.00
113;BME280;45999;48.808;9.182;2023-05-18T04:35:14;98729.28;;;6.27;100.00
113;BME280;45999;48.808;9.182;2023-05-18T04:37:41;98726.19;;;6.23;100.00
113;BME280;45999;48.808;9.182;2023-05-18T04:40:08;98730.22;;;6.34;100.00
113;BME280;45999;48.808;9.182;2023-05-18T04:42:38;98728.50;;;6.41;100.00
113;BME280;45999;48.808;9.182;2023-05-18T04:45:18;98729.19;;;6.43;100.00
113;BME280;45999;48.808;9.182;2023-05-18T04:47:47;98734.09;;;6.46;100.00
113;BME280;45999;48.808;9.182;2023-05-18T04:50:18;98736.50;;;6.78;100.00
113;BME280;45999;48.808;9.182;2023-05-18T04:52:46;98731.56;;;6.75;100.00
113;BME280;45999;48.808;9.182;2023-05-18T04:55:17;98736.69;;;6.91;100.00
113;BME280;45999;48.808;9.182;2023-05-18T04:57:49;98731.84;;;6.80;100.00
113;BME280;45999;48.808;9.182;2023-05-18T05:00:18;98733.19;;;7.71;100.00
113;BME280;45999;48.808;9.182;2023-05-18T05:02:45;98740.63;;;7.82;100.00
113;BME280;45999;48.808;9.182;2023-05-18T05:05:11;98745.53;;;8.49;100.00
113;BME280;45999;48.808;9.182;2023-05-18T05:07:37;98737.66;;;8.20;100.00
113;BME280;45999;48.808;9.182;2023-05-18T05:10:04;98737.94;;;8.67;98.99
113;BME280;45999;48.808;9.182;2023-05-18T05:12:31;98736.19;;;8.18;100.00
113;BME280;45999;48.808;9.182;2023-05-18T05:14:57;98744.44;;;8.23;100.00
113;BME280;45999;48.808;9.182;2023-05-18T05:17:23;98743.44;;;8.24;100.00
113;BME280;45999;48.808;9.182;2023-05-18T05:19:50;98746.09;;;7.95;100.00
113;BME280;45999;48.808;9.182;2023-05-18T05:22:16;98741.63;;;7.95;100.00
113;BME280;45999;48.808;9.182;2023-05-18T05:24:44;98736.09;;;7.61;100.00
113;BME280;45999;48.808;9.182;2023-05-18T05:27:10;98735.81;;;7.71;100.00
113;BME280;45999;48.808;9.182;2023-05-18T05:29:36;98742.34;;;8.04;100.00
113;BME280;45999;48.808;9.182;2023-05-18T05:32:03;98742.84;;;8.28;100.00
113;BME280;45999;48.808;9.182;2023-05-18T05:34:30;98739.41;;;7.63;100.00
113;BME280;45999;48.808;9.182;2023-05-18T05:36:56;98740.00;;;7.80;100.00
113;BME280;45999;48.808;9.182;2023-05-18T05:39:22;98746.69;;;8.11;100.00
113;BME280;45999;48.808;9.182;2023-05-18T05:41:49;98750.25;;;7.83;100.00
113;BME280;45999;48.808;9.182;2023-05-18T05:44:15;98744.47;;;7.79;99.86
113;BME280;45999;48.808;9.182;2023-05-18T05:46:41;98745.78;;;7.69;99.89
113;BME280;45999;48.808;9.182;2023-05-18T05:49:08;98754.31;;;8.00;100.00
113;BME280;45999;48.808;9.182;2023-05-18T05:51:34;98751.19;;;8.11;100.00
113;BME280;45999;48.808;9.182;2023-05-18T05:54:01;98738.94;;;8.24;100.00
113;BME280;45999;48.808;9.182;2023-05-18T05:56:28;98743.75;;;8.35;99.38
113;BME280;45999;48.808;9.182;2023-05-18T05:58:54;98748.47;;;8.40;98.29
113;BME280;45999;48.808;9.182;2023-05-18T06:01:21;98750.25;;;8.75;97.84
113;BME280;45999;48.808;9.182;2023-05-18T06:03:47;98747.47;;;8.83;95.02
113;BME280;45999;48.808;9.182;2023-05-18T06:06:13;98752.94;;;9.02;94.46
113;BME280;45999;48.808;9.182;2023-05-18T06:08:40;98745.19;;;9.01;93.88
113;BME280;45999;48.808;9.182;2023-05-18T06:11:07;98743.00;;;9.11;94.22
113;BME280;45999;48.808;9.182;2023-05-18T06:13:33;98745.69;;;9.17;92.29
113;BME280;45999;48.808;9.182;2023-05-18T06:16:00;98745.19;;;9.35;92.96
113;BME280;45999;48.808;9.182;2023-05-18T06:18:26;98748.72;;;9.42;92.87
113;BME280;45999;48.808;9.182;2023-05-18T06:20:52;98745.47;;;9.46;94.03
113;BME280;45999;48.808;9.182;2023-05-18T06:23:19;98746.69;;;9.44;90.82
113;BME280;45999;48.808;9.182;2023-05-18T06:25:47;98746.97;;;9.55;92.98
113;BME280;45999;48.808;9.182;2023-05-18T06:28:14;98747.31;;;9.80;90.92
113;BME280;45999;48.808;9.182;2023-05-18T06:30:40;98746.88;;;9.76;92.36
113;BME280;45999;48.808;9.182;2023-05-18T06:33:07;98752.66;;;9.86;90.28
113;BME280;45999;48.808;9.182;2023-05-18T06:35:33;98743.81;;;9.73;92.20
113;BME280;45999;48.808;9.182;2023-05-18T06:38:00;98744.88;;;9.85;91.74
113;BME280;45999;48.808;9.182;2023-05-18T06:40:26;98742.75;;;10.08;88.54
113;BME280;45999;48.808;9.182;2023-05-18T06:42:52;98746.03;;;10.10;89.92
113;BME280;45999;48.808;9.182;2023-05-18T06:45:19;98744.44;;;10.15;89.09
113;BME280;45999;48.808;9.182;2023-05-18T06:47:45;98743.19;;;10.11;88.39
113;BME280;45999;48.808;9.182;2023-05-18T06:50:12;98744.69;;;10.27;89.16
113;BME280;45999;48.808;9.182;2023-05-18T06:52:38;98747.16;;;10.41;89.60
113;BME280;45999;48.808;9.182;2023-05-18T06:55:05;98743.47;;;10.42;87.68
113;BME280;45999;48.808;9.182;2023-05-18T06:57:33;98745.09;;;10.30;89.21
113;BME280;45999;48.808;9.182;2023-05-18T06:59:59;98744.72;;;10.53;87.70
113;BME280;45999;48.808;9.182;2023-05-18T07:02:25;98749.84;;;10.54;83.24
113;BME280;45999;48.808;9.182;2023-05-18T07:04:52;98754.75;;;10.51;85.91
113;BME280;45999;48.808;9.182;2023-05-18T07:07:19;98750.09;;;10.06;88.55
113;BME280;45999;48.808;9.182;2023-05-18T07:09:45;98750.81;;;10.34;85.46
113;BME280;45999;48.808;9.182;2023-05-18T07:12:14;98757.78;;;10.48;88.79
113;BME280;45999;48.808;9.182;2023-05-18T07:14:40;98749.25;;;10.65;84.06
113;BME280;45999;48.808;9.182;2023-05-18T07:17:06;98755.00;;;10.82;84.88
113;BME280;45999;48.808;9.182;2023-05-18T07:19:33;98748.81;;;10.62;83.57
113;BME280;45999;48.808;9.182;2023-05-18T07:22:00;98748.03;;;10.87;88.24
113;BME280;45999;48.808;9.182;2023-05-18T07:24:28;98755.41;;;11.05;81.33
113;BME280;45999;48.808;9.182;2023-05-18T07:26:54;98751.94;;;11.18;83.05
113;BME280;45999;48.808;9.182;2023-05-18T07:29:20;98749.47;;;11.16;84.15
113;BME280;45999;48.808;9.182;2023-05-18T07:31:47;98740.66;;;11.28;81.34
113;BME280;45999;48.808;9.182;2023-05-18T07:34:13;98740.44;;;11.43;80.81
113;BME280;45999;48.808;9.182;2023-05-18T07:36:39;98743.72;;;11.45;79.57
113;BME280;45999;48.808;9.182;2023-05-18T07:39:06;98736.72;;;11.57;83.83
113;BME280;45999;48.808;9.182;2023-05-18T07:41:33;98737.69;;;11.89;81.95
113;BME280;45999;48.808;9.182;2023-05-18T07:44:00;98733.97;;;11.96;80.35
113;BME280;45999;48.808;9.182;2023-05-18T07:46:26;98741.28;;;12.07;83.41
113;BME280;45999;48.808;9.182;2023-05-18T07:48:52;98729.19;;;12.11;79.46
113;BME280;45999;48.808;9.182;2023-05-18T07:51:19;98734.25;;;12.26;79.51
113;BME280;45999;48.808;9.182;2023-05-18T07:53:45;98732.56;;;12.31;79.17
113;BME280;45999;48.808;9.182;2023-05-18T07:56:12;98727.81;;;12.40;80.19
113;BME280;45999;48.808;9.182;2023-05-18T07:58:39;98730.53;;;12.64;78.25
113;BME280;45999;48.808;9.182;2023-05-18T08:01:05;98718.97;;;12.70;78.83
113;BME280;45999;48.808;9.182;2023-05-18T08:03:32;98722.97;;;12.55;76.40
113;BME280;45999;48.808;9.182;2023-05-18T08:05:58;98727.25;;;12.87;76.62
113;BME280;45999;48.808;9.182;2023-05-18T08:08:25;98728.53;;;12.84;76.89
113;BME280;45999;48.808;9.182;2023-05-18T08:10:51;98719.66;;;12.90;75.40
113;BME280;45999;48.808;9.182;2023-05-18T08:13:18;98725.53;;;13.05;77.65
113;BME280;45999;48.808;9.182;2023-05-18T08:15:44;98718.53;;;13.29;73.74
113;BME280;45999;48.808;9.182;2023-05-18T08:18:11;98716.03;;;13.09;74.19
113;BME280;45999;48.808;9.182;2023-05-18T08:20:37;98714.81;;;13.30;76.29
113;BME280;45999;48.808;9.182;2023-05-18T08:23:04;98713.44;;;13.63;74.87
113;BME280;45999;48.808;9.182;2023-05-18T08:25:30;98705.44;;;13.63;71.26
113;BME280;45999;48.808;9.182;2023-05-18T08:27:56;98708.53;;;13.60;69.76
113;BME280;45999;48.808;9.182;2023-05-18T08:30:23;98710.47;;;13.71;70.23
113;BME280;45999;48.808;9.182;2023-05-18T08:32:50;98709.88;;;13.51;66.18
113;BME280;45999;48.808;9.182;2023-05-18T08:35:17;98704.19;;;13.66;66.86
113;BME280;45999;48.808;9.182;2023-05-18T08:37:43;98705.03;;;13.78;64.70
113;BME280;45999;48.808;9.182;2023-05-18T08:40:10;98702.00;;;13.92;69.17
113;BME280;45999;48.808;9.182;2023-05-18T08:43:02;98695.03;;;13.91;67.75
113;BME280;45999;48.808;9.182;2023-05-18T08:45:36;98693.69;;;14.00;69.75
113;BME280;45999;48.808;9.182;2023-05-18T08:48:06;98698.03;;;14.31;64.50
113;BME280;45999;48.808;9.182;2023-05-18T08:50:33;98690.44;;;14.57;63.35
113;BME280;45999;48.808;9.182;2023-05-18T08:53:04;98695.34;;;14.60;61.39
113;BME280;45999;48.808;9.182;2023-05-18T08:55:31;98688.19;;;14.95;63.36
113;BME280;45999;48.808;9.182;2023-05-18T08:58:01;98693.75;;;14.82;58.59
113;BME280;45999;48.808;9.182;2023-05-18T09:00:28;98684.81;;;15.00;62.39
113;BME280;45999;48.808;9.182;2023-05-18T09:02:55;98682.50;;;15.15;59.32
113;BME280;45999;48.808;9.182;2023-05-18T09:05:22;98675.59;;;15.07;61.58
113;BME280;45999;48.808;9.182;2023-05-18T09:07:53;98671.78;;;15.15;61.49
113;BME280;45999;48.808;9.182;2023-05-18T09:10:20;98681.38;;;15.34;61.69
113;BME280;45999;48.808;9.182;2023-05-18T09:12:48;98682.03;;;15.29;59.52
113;BME280;45999;48.808;9.182;2023-05-18T09:15:16;98685.31;;;15.20;62.13
113;BME280;45999;48.808;9.182;2023-05-18T09:17:42;98684.44;;;14.73;61.93
113;BME280;45999;48.808;9.182;2023-05-18T09:20:09;98686.34;;;14.55;60.41
113;BME280;45999;48.808;9.182;2023-05-18T09:22:35;98674.06;;;14.06;60.31
113;BME280;45999;48.808;9.182;2023-05-18T09:25:05;98684.31;;;14.27;58.52
113;BME280;45999;48.808;9.182;2023-05-18T09:27:33;98682.94;;;14.18;57.50
113;BME280;45999;48.808;9.182;2023-05-18T09:29:59;98686.50;;;14.30;60.55
113;BME280;45999;48.808;9.182;2023-05-18T09:32:26;98687.97;;;14.44;58.80
113;BME280;45999;48.808;9.182;2023-05-18T09:34:52;98692.28;;;14.45;56.75
113;BME280;45999;48.808;9.182;2023-05-18T09:37:20;98681.69;;;14.50;57.13
113;BME280;45999;48.808;9.182;2023-05-18T09:39:57;98683.34;;;14.63;58.59
113;BME280;45999;48.808;9.182;2023-05-18T09:42:34;98680.28;;;15.00;56.27
113;BME280;45999;48.808;9.182;2023-05-18T09:45:21;98679.72;;;14.98;55.57
113;BME280;45999;48.808;9.182;2023-05-18T09:47:50;98676.63;;;14.83;56.38
113;BME280;45999;48.808;9.182;2023-05-18T09:50:23;98676.81;;;15.34;57.36
113;BME280;45999;48.808;9.182;2023-05-18T09:52:50;98681.06;;;15.81;53.90
113;BME280;45999;48.808;9.182;2023-05-18T09:55:18;98678.22;;;15.99;53.56
113;BME280;45999;48.808;9.182;2023-05-18T09:57:46;98679.66;;;15.79;54.01
113;BME280;45999;48.808;9.182;2023-05-18T10:00:13;98677.72;;;15.63;53.36
113;BME280;45999;48.808;9.182;2023-05-18T10:02:42;98670.00;;;15.78;55.52
113;BME280;45999;48.808;9.182;2023-05-18T10:07:52;98663.66;;;15.95;52.41
113;BME280;45999;48.808;9.182;2023-05-18T10:10:21;98661.41;;;16.04;50.08
113;BME280;45999;48.808;9.182;2023-05-18T10:12:52;98657.59;;;16.28;50.41
113;BME280;45999;48.808;9.182;2023-05-18T10:15:22;98656.81;;;16.44;51.01
113;BME280;45999;48.808;9.182;2023-05-18T10:17:50;98653.41;;;16.48;52.78
113;BME280;45999;48.808;9.182;2023-05-18T10:20:20;98654.91;;;16.72;51.47
113;BME280;45999;48.808;9.182;2023-05-18T10:22:49;98658.41;;;16.73;51.10
113;BME280;45999;48.808;9.182;2023-05-18T10:25:18;98649.94;;;16.36;51.91
113;BME280;45999;48.808;9.182;2023-05-18T10:27:47;98651.53;;;16.21;51.61
113;BME280;45999;48.808;9.182;2023-05-18T10:30:15;98648.28;;;15.79;50.75
113;BME280;45999;48.808;9.182;2023-05-18T10:32:42;98647.25;;;16.36;52.98
113;BME280;45999;48.808;9.182;2023-05-18T10:35:10;98644.00;;;16.46;48.49
113;BME280;45999;48.808;9.182;2023-05-18T10:37:38;98654.59;;;16.41;48.69
113;BME280;45999;48.808;9.182;2023-05-18T10:40:07;98648.13;;;16.53;46.63
113;BME280;45999;48.808;9.182;2023-05-18T10:42:35;98653.53;;;16.86;48.82
113;BME280;45999;48.808;9.182;2023-05-18T10:45:02;98643.53;;;16.98;48.29
113;BME280;45999;48.808;9.182;2023-05-18T10:47:31;98638.78;;;17.05;46.53
113;BME280;45999;48.808;9.182;2023-05-18T10:50:00;98637.09;;;16.83;48.81
113;BME280;45999;48.808;9.182;2023-05-18T10:52:30;98630.00;;;17.10;47.61
113;BME280;45999;48.808;9.182;2023-05-18T10:54:58;98634.06;;;16.79;45.75
113;BME280;45999;48.808;9.182;2023-05-18T10:57:30;98643.31;;;17.21;49.63
113;BME280;45999;48.808;9.182;2023-05-18T10:59:59;98634.06;;;17.12;46.06
113;BME280;45999;48.808;9.182;2023-05-18T11:02:26;98628.94;;;17.11;44.61
113;BME280;45999;48.808;9.182;2023-05-18T11:04:53;98623.13;;;17.57;45.04
113;BME280;45999;48.808;9.182;2023-05-18T11:07:21;98626.47;;;17.64;50.00
113;BME280;45999;48.808;9.182;2023-05-18T11:09:48;98637.94;;;17.21;46.67
113;BME280;45999;48.808;9.182;2023-05-18T11:12:17;98628.03;;;17.05;47.46
113;BME280;45999;48.808;9.182;2023-05-18T11:14:51;98628.38;;;16.31;49.04
113;BME280;45999;48.808;9.182;2023-05-18T11:17:28;98631.28;;;16.58;49.98
113;BME280;45999;48.808;9.182;2023-05-18T11:27:51;98611.13;;;17.05;49.87
113;BME280;45999;48.808;9.182;2023-05-18T11:30:28;98612.94;;;17.21;46.81
113;BME280;45999;48.808;9.182;2023-05-18T11:35:33;98617.97;;;16.96;45.75
113;BME280;45999;48.808;9.182;2023-05-18T11:38:19;98612.94;;;17.21;48.96
113;BME280;45999;48.808;9.182;2023-05-18T11:40:46;98596.63;;;17.27;46.50
113;BME280;45999;48.808;9.182;2023-05-18T11:43:23;98599.88;;;17.29;47.14
113;BME280;45999;48.808;9.182;2023-05-18T11:45:57;98596.38;;;17.45;46.22
113;BME280;45999;48.808;9.182;2023-05-18T11:48:27;98608.44;;;17.43;46.97
113;BME280;45999;48.808;9.182;2023-05-18T11:50:55;98617.16;;;17.50;46.93
113;BME280;45999;48.808;9.182;2023-05-18T11:53:23;98601.34;;;16.99;47.20
113;BME280;45999;48.808;9.182;2023-05-18T11:55:53;98602.38;;;17.14;48.82
113;BME280;45999;48.808;9.182;2023-05-18T11:58:23;98602.38;;;17.36;48.34
113;BME280;45999;48.808;9.182;2023-05-18T12:00:50;98597.50;;;17.49;46.55
113;BME280;45999;48.808;9.182;2023-05-18T12:03:22;98593.31;;;17.20;45.09
113;BME280;45999;48.808;9.182;2023-05-18T12:05:49;98597.72;;;17.26;46.52
113;BME280;45999;48.808;9.182;2023-05-18T12:08:17;98595.44;;;17.56;46.39
113;BME280;45999;48.808;9.182;2023-05-18T12:10:44;98589.44;;;17.71;47.50
113;BME280;45999;48.808;9.182;2023-05-18T12:13:12;98585.53;;;17.83;45.88
113;BME280;45999;48.808;9.182;2023-05-18T12:15:39;98590.63;;;17.58;46.34
113;BME280;45999;48.808;9.182;2023-05-18T12:18:06;98592.25;;;17.59;46.15
113;BME280;45999;48.808;9.182;2023-05-18T12:20:32;98593.47;;;17.30;47.48
113;BME280;45999;48.808;9.182;2023-05-18T12:22:59;98596.56;;;17.22;46.49
113;BME280;45999;48.808;9.182;2023-05-18T12:25:26;98572.19;;;17.07;47.04
113;BME280;45999;48.808;9.182;2023-05-18T12:27:53;98585.50;;;17.57;48.48
113;BME280;45999;48.808;9.182;2023-05-18T12:30:22;98584.34;;;17.31;44.63
113;BME280;45999;48.808;9.182;2023-05-18T12:32:53;98586.38;;;17.41;45.15
113;BME280;45999;48.808;9.182;2023-05-18T12:35:24;98578.78;;;17.38;45.11
113;BME280;45999;48.808;9.182;2023-05-18T12:37:51;98578.66;;;17.28;45.89
113;BME280;45999;48.808;9.182;2023-05-18T12:40:21;98583.19;;;17.44;46.14
113;BME280;45999;48.808;9.182;2023-05-18T12:42:55;98580.03;;;17.30;46.21
113;BME280;45999;48.808;9.182;2023-05-18T12:45:27;98576.16;;;17.21;46.54
113;BME280;45999;48.808;9.182;2023-05-18T12:47:55;98572.56;;;17.37;44.08
113;BME280;45999;48.808;9.182;2023-05-18T12:50:28;98574.69;;;17.52;45.16
113;BME280;45999;48.808;9.182;2023-05-18T12:52:55;98569.00;;;17.70;43.87
113;BME280;45999;48.808;9.182;2023-05-18T12:55:23;98575.25;;;17.75;46.87
113;BME280;45999;48.808;9.182;2023-05-18T13:00:31;98575.00;;;17.55;45.91
113;BME280;45999;48.808;9.182;2023-05-18T13:03:11;98566.97;;;17.60;49.44
113;BME280;45999;48.808;9.182;2023-05-18T13:05:38;98566.06;;;17.71;45.22
113;BME280;45999;48.808;9.182;2023-05-18T13:08:06;98557.59;;;17.84;44.56
113;BME280;45999;48.808;9.182;2023-05-18T13:10:32;98559.34;;;18.00;46.20
113;BME280;45999;48.808;9.182;2023-05-18T13:12:59;98555.81;;;18.21;47.72
113;BME280;45999;48.808;9.182;2023-05-18T13:15:35;98563.88;;;18.21;45.37
113;BME280;45999;48.808;9.182;2023-05-18T13:18:04;98557.69;;;17.94;47.55
113;BME280;45999;48.808;9.182;2023-05-18T13:20:48;98556.06;;;17.93;46.13
113;BME280;45999;48.808;9.182;2023-05-18T13:23:24;98562.97;;;17.63;44.87
113;BME280;45999;48.808;9.182;2023-05-18T13:25:51;98567.03;;;17.65;45.00
113;BME280;45999;48.808;9.182;2023-05-18T13:28:19;98568.88;;;17.60;49.50
113;BME280;45999;48.808;9.182;2023-05-18T13:30:47;98560.75;;;17.17;47.45
113;BME280;45999;48.808;9.182;2023-05-18T13:33:17;98559.38;;;17.14;45.51
113;BME280;45999;48.808;9.182;2023-05-18T13:35:44;98560.75;;;17.17;48.74
113;BME280;45999;48.808;9.182;2023-05-18T13:38:13;98565.03;;;17.34;46.57
113;BME280;45999;48.808;9.182;2023-05-18T13:40:40;98552.56;;;17.66;45.63
113;BME280;45999;48.808;9.182;2023-05-18T13:43:07;98554.63;;;17.86;45.91
113;BME280;45999;48.808;9.182;2023-05-18T13:45:34;98544.09;;;17.58;45.08
113;BME280;45999;48.808;9.182;2023-05-18T13:48:01;98544.91;;;17.37;45.22